Time;durP1;ratioP1;P1;durP2;ratioP2;P2;SDS_P1;SDS_P2;PMS_P1;PMS_P2;Temp;Humidity;BMP_temperature;BMP_pressure;BME280_temperature;BME280_humidity;BME280_pressure;Samples;Min_cycle;Max_cycle;Signal;HPM_P1;HPM_P2
2021/07/13 00:01:47;;;;;;;;;;;;;;;;;;5052898;28;19929;-72
2021/07/13 00:04:14;;;;;;;;;;;;;;;;;;5049737;28;19925;-68
2021/07/13 00:06:41;;;;;;;;;;;;;;;;;;5050514;28;19925;-68
2021/07/13 00:09:08;;;;;;;;;;;;;;;;;;5051055;28;19935;-68
2021/07/13 00:11:34;;;;;;;;;;;;;;;;;;5050827;28;20288;-68
2021/07/13 00:14:01;;;;;;;;;;;;;;;;;;5050430;28;20428;-69
2021/07/13 00:16:28;;;;;;;;;;;;;;;;;;5050047;28;19925;-70
2021/07/13 00:18:55;;;;;;;;;;;;;;;;;;5052282;28;19925;-70
2021/07/13 00:21:22;;;;;;;;;;;;;;;;;;5051899;28;20243;-69
2021/07/13 00:23:49;;;;;;;;;;;;;;;;;;5044243;28;19929;-69
2021/07/13 00:26:16;;;;;;;;;;;;;;;;;;5040573;28;19965;-70
2021/07/13 00:28:43;;;;;;;;;;;;;;;;;;5050914;28;19925;-70
2021/07/13 00:31:10;;;;;;;;;;;;;;;;;;5040899;28;19936;-70
2021/07/13 00:33:37;;;;;;;;;;;;;;;;;;5049536;28;20320;-70
2021/07/13 00:36:04;;;;;;;;;;;;;;;;;;5046957;28;19931;-69
2021/07/13 00:38:31;;;;;;;;;;;;;;;;;;5048817;28;19932;-68
2021/07/13 00:40:58;;;;;;;;;;;;;;;;;;5050975;28;19925;-69
2021/07/13 00:43:25;;;;;;;;;;;;;;;;;;5050870;28;21485;-69
2021/07/13 00:45:52;;;;;;;;;;;;;;;;;;5045096;28;19929;-69
2021/07/13 00:48:19;;;;;;;;;;;;;;;;;;5041699;28;19925;-69
2021/07/13 00:50:46;;;;;;;;;;;;;;;;;;5046180;28;19925;-69
2021/07/13 00:53:13;;;;;;;;;;;;;;;;;;5050008;28;19933;-68
2021/07/13 00:55:40;;;;;;;;;;;;;;;;;;5051010;28;19924;-69
2021/07/13 00:58:07;;;;;;;;;;;;;;;;;;5047094;28;19932;-69
2021/07/13 01:00:34;;;;;;;;;;;;;;;;;;5047312;28;20039;-69
2021/07/13 01:03:01;;;;;;;;;;;;;;;;;;5046636;28;20352;-69
2021/07/13 01:05:28;;;;;;;;;;;;;;;;;;5046939;28;20304;-70
2021/07/13 01:07:56;;;;;;;;;;;;;;;;;;5048671;28;19977;-69
2021/07/13 01:10:23;;;;;;;;;;;;;;;;;;5043268;28;20012;-69
2021/07/13 01:12:50;;;;;;;;;;;;;;;;;;5051352;28;19963;-70
2021/07/13 01:15:17;;;;;;;;;;;;;;;;;;5050251;28;19925;-69
2021/07/13 01:17:44;;;;;;;;;;;;;;;;;;5047298;28;19925;-69
2021/07/13 01:20:11;;;;;;;;;;;;;;;;;;5036923;28;19925;-69
2021/07/13 01:22:38;;;;;;;;;;;;;;;;;;5044086;28;19935;-69
2021/07/13 01:25:05;;;;;;;;;;;;;;;;;;5046985;28;19932;-69
2021/07/13 01:27:32;;;;;;;;;;;;;;;;;;5045222;28;19936;-69
2021/07/13 01:29:59;;;;;;;;;;;;;;;;;;5045260;28;20368;-69
2021/07/13 01:32:25;;;;;;;;;;;;;;;;;;5050642;28;20218;-69
2021/07/13 01:34:54;;;;;;;;;;;;;;;;;;5039863;28;19940;-69
2021/07/13 01:37:21;;;;;;;;;;;;;;;;;;5038722;28;19929;-69
2021/07/13 01:39:48;;;;;;;;;;;;;;;;;;5042752;28;19929;-69
2021/07/13 01:42:15;;;;;;;;;;;;;;;;;;5050286;28;20385;-69
2021/07/13 01:44:42;;;;;;;;;;;;;;;;;;5046018;28;19925;-69
2021/07/13 01:47:08;;;;;;;;;;;;;;;;;;5042233;28;19932;-69
2021/07/13 01:49:35;;;;;;;;;;;;;;;;;;5042747;28;19931;-70
2021/07/13 01:52:02;;;;;;;;;;;;;;;;;;5048391;28;19951;-69
2021/07/13 01:54:29;;;;;;;;;;;;;;;;;;5043309;28;20307;-69
2021/07/13 01:56:56;;;;;;;;;;;;;;;;;;5047181;28;19924;-69
2021/07/13 01:59:23;;;;;;;;;;;;;;;;;;5042909;28;19931;-69
2021/07/13 02:01:50;;;;;;;;;;;;;;;;;;5045031;28;19992;-70
2021/07/13 02:04:17;;;;;;;;;;;;;;;;;;5040856;28;19940;-68
2021/07/13 02:06:44;;;;;;;;;;;;;;;;;;5040631;28;19925;-69
2021/07/13 02:09:11;;;;;;;;;;;;;;;;;;5038903;28;19925;-69
2021/07/13 02:11:38;;;;;;;;;;;;;;;;;;5036541;28;19936;-69
2021/07/13 02:14:05;;;;;;;;;;;;;;;;;;5039892;28;20336;-70
2021/07/13 02:16:32;;;;;;;;;;;;;;;;;;5045886;28;19933;-70
2021/07/13 02:18:58;;;;;;;;;;;;;;;;;;5047870;28;19931;-69
2021/07/13 02:21:25;;;;;;;;;;;;;;;;;;5047282;28;19925;-69
2021/07/13 02:23:52;;;;;;;;;;;;;;;;;;5042654;28;19932;-70
2021/07/13 02:26:19;;;;;;;;;;;;;;;;;;5040185;28;19925;-69
2021/07/13 02:28:46;;;;;;;;;;;;;;;;;;5046055;28;20385;-70
2021/07/13 02:31:13;;;;;;;;;;;;;;;;;;5036648;28;19925;-70
2021/07/13 02:33:40;;;;;;;;;;;;;;;;;;5037416;28;19925;-69
2021/07/13 02:36:07;;;;;;;;;;;;;;;;;;5046264;28;19925;-70
2021/07/13 02:38:34;;;;;;;;;;;;;;;;;;5044445;28;19932;-69
2021/07/13 02:41:01;;;;;;;;;;;;;;;;;;5040918;28;19925;-70
2021/07/13 02:43:28;;;;;;;;;;;;;;;;;;5041675;28;19929;-70
2021/07/13 02:45:55;;;;;;;;;;;;;;;;;;5043582;28;19925;-69
2021/07/13 02:48:22;;;;;;;;;;;;;;;;;;5043132;28;20309;-69
2021/07/13 02:50:49;;;;;;;;;;;;;;;;;;5038570;28;19925;-69
2021/07/13 02:53:16;;;;;;;;;;;;;;;;;;5047526;28;20513;-68
2021/07/13 02:55:42;;;;;;;;;;;;;;;;;;5043416;28;19925;-70
2021/07/13 02:58:09;;;;;;;;;;;;;;;;;;5044354;28;19925;-70
2021/07/13 03:00:36;;;;;;;;;;;;;;;;;;5046381;28;19947;-70
2021/07/13 03:03:04;;;;;;;;;;;;;;;;;;5040852;28;19925;-70
2021/07/13 03:05:31;;;;;;;;;;;;;;;;;;5045433;28;19932;-70
2021/07/13 03:07:58;;;;;;;;;;;;;;;;;;5047001;28;19929;-70
2021/07/13 03:10:24;;;;;;;;;;;;;;;;;;5044010;28;19944;-70
2021/07/13 03:12:51;;;;;;;;;;;;;;;;;;5042827;28;19925;-71
2021/07/13 03:15:18;;;;;;;;;;;;;;;;;;5049289;28;19925;-70
2021/07/13 03:17:45;;;;;;;;;;;;;;;;;;5044460;28;19933;-69
2021/07/13 03:20:12;;;;;;;;;;;;;;;;;;5045510;28;20296;-70
2021/07/13 03:22:39;;;;;;;;;;;;;;;;;;5048001;28;19931;-69
2021/07/13 03:25:06;;;;;;;;;;;;;;;;;;5041297;28;19933;-70
2021/07/13 03:27:33;;;;;;;;;;;;;;;;;;5038912;28;19925;-69
2021/07/13 03:30:00;;;;;;;;;;;;;;;;;;5039609;28;19925;-69
2021/07/13 03:32:27;;;;;;;;;;;;;;;;;;5043994;28;20238;-69
2021/07/13 03:34:54;;;;;;;;;;;;;;;;;;5044249;28;19925;-69
2021/07/13 03:37:21;;;;;;;;;;;;;;;;;;5041176;28;19925;-69
2021/07/13 03:39:48;;;;;;;;;;;;;;;;;;5039956;28;19932;-69
2021/07/13 03:42:15;;;;;;;;;;;;;;;;;;5046018;28;19925;-69
2021/07/13 03:44:42;;;;;;;;;;;;;;;;;;5046578;28;19926;-70
2021/07/13 03:47:09;;;;;;;;;;;;;;;;;;5035433;28;19929;-69
2021/07/13 03:49:36;;;;;;;;;;;;;;;;;;5039421;28;19932;-69
2021/07/13 03:52:02;;;;;;;;;;;;;;;;;;5043367;28;19934;-69
2021/07/13 03:54:29;;;;;;;;;;;;;;;;;;5042210;28;19936;-69
2021/07/13 03:56:56;;;;;;;;;;;;;;;;;;5034928;28;19964;-69
2021/07/13 03:59:23;;;;;;;;;;;;;;;;;;5041322;28;20364;-69
2021/07/13 04:01:50;;;;;;;;;;;;;;;;;;5042446;28;19925;-69
2021/07/13 04:04:17;;;;;;;;;;;;;;;;;;5045308;28;19931;-69
2021/07/13 04:06:44;;;;;;;;;;;;;;;;;;5045072;28;20416;-69
2021/07/13 04:09:11;;;;;;;;;;;;;;;;;;5042394;28;20393;-69
2021/07/13 04:11:38;;;;;;;;;;;;;;;;;;5046613;28;19933;-70
2021/07/13 04:14:05;;;;;;;;;;;;;;;;;;5044342;28;19929;-73
2021/07/13 04:16:32;;;;;;;;;;;;;;;;;;5042983;28;19925;-70
2021/07/13 04:18:59;;;;;;;;;;;;;;;;;;5038490;28;19936;-70
2021/07/13 04:21:26;;;;;;;;;;;;;;;;;;5036382;28;19925;-69
2021/07/13 04:23:52;;;;;;;;;;;;;;;;;;5037459;28;19926;-70
2021/07/13 04:26:19;;;;;;;;;;;;;;;;;;5043386;28;19925;-69
2021/07/13 04:28:46;;;;;;;;;;;;;;;;;;5047721;28;19990;-68
2021/07/13 04:31:13;;;;;;;;;;;;;;;;;;5044449;28;20281;-68
2021/07/13 04:33:40;;;;;;;;;;;;;;;;;;5049103;28;19932;-68
2021/07/13 04:36:07;;;;;;;;;;;;;;;;;;5047219;28;19925;-68
2021/07/13 04:38:34;;;;;;;;;;;;;;;;;;5051003;28;19932;-69
2021/07/13 04:41:01;;;;;;;;;;;;;;;;;;5046298;28;19932;-69
2021/07/13 04:43:28;;;;;;;;;;;;;;;;;;5044825;28;19925;-68
2021/07/13 04:45:55;;;;;;;;;;;;;;;;;;5046723;28;19932;-70
2021/07/13 04:48:22;;;;;;;;;;;;;;;;;;5044506;28;20378;-69
2021/07/13 04:50:48;;;;;;;;;;;;;;;;;;5038695;28;19929;-69
2021/07/13 04:53:15;;;;;;;;;;;;;;;;;;5044600;28;19932;-70
2021/07/13 04:55:42;;;;;;;;;;;;;;;;;;5044228;28;20285;-70
2021/07/13 04:58:09;;;;;;;;;;;;;;;;;;5044586;28;19925;-70
2021/07/13 05:00:36;;;;;;;;;;;;;;;;;;5043061;28;19925;-69
2021/07/13 05:03:03;;;;;;;;;;;;;;;;;;5043889;28;19925;-69
2021/07/13 05:05:30;;;;;;;;;;;;;;;;;;5038720;28;19932;-70
2021/07/13 05:07:57;;;;;;;;;;;;;;;;;;5037622;28;19932;-68
2021/07/13 05:10:24;;;;;;;;;;;;;;;;;;5044871;28;19929;-70
2021/07/13 05:12:51;;;;;;;;;;;;;;;;;;5041805;28;20412;-70
2021/07/13 05:15:18;;;;;;;;;;;;;;;;;;5047451;28;19925;-70
2021/07/13 05:17:45;;;;;;;;;;;;;;;;;;5039938;28;19936;-70
2021/07/13 05:20:12;;;;;;;;;;;;;;;;;;5043791;28;19932;-68
2021/07/13 05:22:39;;;;;;;;;;;;;;;;;;5042728;28;19940;-69
2021/07/13 05:25:06;;;;;;;;;;;;;;;;;;5050504;28;19933;-69
2021/07/13 05:27:33;;;;;;;;;;;;;;;;;;5047631;28;19944;-70
2021/07/13 05:30:00;;;;;;;;;;;;;;;;;;5044415;28;19929;-70
2021/07/13 05:32:28;;;;;;;;;;;;;;;;;;5041303;28;19932;-69
2021/07/13 05:34:55;;;;;;;;;;;;;;;;;;5045775;28;19925;-70
2021/07/13 05:37:22;;;;;;;;;;;;;;;;;;5041421;28;19935;-69
2021/07/13 05:39:49;;;;;;;;;;;;;;;;;;5040852;28;19929;-68
2021/07/13 05:42:16;;;;;;;;;;;;;;;;;;5046555;28;19931;-69
2021/07/13 05:44:43;;;;;;;;;;;;;;;;;;5041852;28;19925;-69
2021/07/13 05:47:10;;;;;;;;;;;;;;;;;;5042428;28;19932;-67
2021/07/13 05:49:40;;;;;;;;;;;;;;;;;;5044544;28;21268;-68
2021/07/13 05:52:07;;;;;;;;;;;;;;;;;;5048800;28;20023;-68
2021/07/13 05:54:34;;;;;;;;;;;;;;;;;;5045112;28;19929;-68
2021/07/13 05:57:01;;;;;;;;;;;;;;;;;;5040376;28;19932;-71
2021/07/13 05:59:28;;;;;;;;;;;;;;;;;;5045152;28;19925;-69
2021/07/13 06:01:55;;;;;;;;;;;;;;;;;;5048407;28;19925;-69
2021/07/13 06:04:22;;;;;;;;;;;;;;;;;;5048561;28;19925;-69
2021/07/13 06:06:49;;;;;;;;;;;;;;;;;;5040546;28;20293;-68
2021/07/13 06:09:16;;;;;;;;;;;;;;;;;;5050043;28;20460;-67
2021/07/13 06:11:42;;;;;;;;;;;;;;;;;;5049215;28;19924;-69
2021/07/13 06:14:09;;;;;;;;;;;;;;;;;;5049812;28;19939;-69
2021/07/13 06:16:36;;;;;;;;;;;;;;;;;;5046921;28;19929;-69
2021/07/13 06:19:03;;;;;;;;;;;;;;;;;;5043365;28;19925;-69
2021/07/13 06:21:30;;;;;;;;;;;;;;;;;;5048076;28;19925;-69
2021/07/13 06:23:58;;;;;;;;;;;;;;;;;;5039778;28;19960;-69
2021/07/13 06:26:25;;;;;;;;;;;;;;;;;;5044209;28;19968;-69
2021/07/13 06:28:52;;;;;;;;;;;;;;;;;;5049804;28;19931;-69
2021/07/13 06:31:19;;;;;;;;;;;;;;;;;;5049080;28;19925;-69
2021/07/13 06:33:45;;;;;;;;;;;;;;;;;;5040009;28;19929;-69
2021/07/13 06:36:12;;;;;;;;;;;;;;;;;;5045643;28;19925;-69
2021/07/13 06:38:39;;;;;;;;;;;;;;;;;;5043838;28;20444;-69
2021/07/13 06:41:06;;;;;;;;;;;;;;;;;;5047879;28;19931;-69
2021/07/13 06:43:33;;;;;;;;;;;;;;;;;;5043612;28;19933;-68
2021/07/13 06:46:00;;;;;;;;;;;;;;;;;;5040053;28;19929;-68
2021/07/13 06:48:27;;;;;;;;;;;;;;;;;;5042382;28;19932;-69
2021/07/13 06:50:54;;;;;;;;;;;;;;;;;;5042521;28;19933;-69
2021/07/13 06:53:21;;;;;;;;;;;;;;;;;;5039926;28;20296;-68
2021/07/13 06:55:48;;;;;;;;;;;;;;;;;;5045758;28;20392;-68
2021/07/13 06:58:15;;;;;;;;;;;;;;;;;;5046436;28;19932;-70
2021/07/13 07:00:42;;;;;;;;;;;;;;;;;;5046941;28;19947;-70
2021/07/13 07:03:09;;;;;;;;;;;;;;;;;;5038759;28;19929;-69
2021/07/13 07:05:36;;;;;;;;;;;;;;;;;;5041447;28;19929;-69
2021/07/13 07:08:03;;;;;;;;;;;;;;;;;;5044593;28;19940;-69
2021/07/13 07:10:29;;;;;;;;;;;;;;;;;;5045778;28;19935;-69
2021/07/13 07:12:56;;;;;;;;;;;;;;;;;;5047324;28;19925;-69
2021/07/13 07:15:23;;;;;;;;;;;;;;;;;;5039496;28;19932;-70
2021/07/13 07:17:50;;;;;;;;;;;;;;;;;;5042695;28;19932;-71
2021/07/13 07:20:17;;;;;;;;;;;;;;;;;;5039003;28;20566;-70
2021/07/13 07:22:44;;;;;;;;;;;;;;;;;;5044019;28;19935;-70
2021/07/13 07:25:11;;;;;;;;;;;;;;;;;;5038068;28;19960;-71
2021/07/13 07:27:38;;;;;;;;;;;;;;;;;;5046355;28;20296;-70
2021/07/13 07:30:06;;;;;;;;;;;;;;;;;;5039337;28;19929;-71
2021/07/13 07:32:33;;;;;;;;;;;;;;;;;;5042180;28;19933;-72
2021/07/13 07:34:59;;;;;;;;;;;;;;;;;;5046471;28;19940;-69
2021/07/13 07:37:26;;;;;;;;;;;;;;;;;;5047388;28;19925;-72
2021/07/13 07:39:53;;;;;;;;;;;;;;;;;;5043641;28;19925;-70
2021/07/13 07:42:20;;;;;;;;;;;;;;;;;;5042138;28;19925;-68
2021/07/13 07:44:47;;;;;;;;;;;;;;;;;;5046235;28;19926;-70
2021/07/13 07:47:14;;;;;;;;;;;;;;;;;;5047594;28;19937;-69
2021/07/13 07:49:41;;;;;;;;;;;;;;;;;;5043317;28;19948;-69
2021/07/13 07:52:08;;;;;;;;;;;;;;;;;;5038431;28;20249;-70
2021/07/13 07:54:35;;;;;;;;;;;;;;;;;;5044186;28;20035;-68
2021/07/13 07:57:02;;;;;;;;;;;;;;;;;;5046691;28;20011;-69
2021/07/13 07:59:29;;;;;;;;;;;;;;;;;;5047311;28;19925;-69
2021/07/13 08:01:56;;;;;;;;;;;;;;;;;;5050647;28;19925;-68
2021/07/13 08:04:23;;;;;;;;;;;;;;;;;;5063068;28;19931;-70
2021/07/13 08:06:50;;;;;;;;;;;;;;;;;;5062826;28;19924;-70
2021/07/13 08:09:17;;;;;;;;;;;;;;;;;;5061464;28;20020;-70
2021/07/13 08:11:45;;;;;;;;;;;;;;;;;;5058174;28;19967;-69
2021/07/13 08:14:12;;;;;;;;;;;;;;;;;;5046372;28;19968;-69
2021/07/13 08:16:40;;;;;;;;;;;;;;;;;;5056203;28;19964;-70
2021/07/13 08:19:07;;;;;;;;;;;;;;;;;;5057113;28;20337;-69
2021/07/13 08:21:34;;;;;;;;;;;;;;;;;;5053685;28;19974;-70
2021/07/13 08:24:01;;;;;;;;;;;;;;;;;;5049774;28;19947;-69
2021/07/13 08:26:28;;;;;;;;;;;;;;;;;;5047635;28;19932;-70
2021/07/13 08:28:55;;;;;;;;;;;;;;;;;;5056230;28;19987;-71
2021/07/13 08:31:22;;;;;;;;;;;;;;;;;;5051413;28;19925;-71
2021/07/13 08:33:49;;;;;;;;;;;;;;;;;;5044697;28;19929;-69
2021/07/13 08:36:16;;;;;;;;;;;;;;;;;;5053138;28;19925;-69
2021/07/13 08:38:43;;;;;;;;;;;;;;;;;;5050211;28;20373;-72
2021/07/13 08:41:10;;;;;;;;;;;;;;;;;;5049121;28;19928;-72
2021/07/13 08:43:37;;;;;;;;;;;;;;;;;;5046167;28;19924;-71
2021/07/13 08:46:04;;;;;;;;;;;;;;;;;;5048578;28;20407;-71
2021/07/13 08:48:31;;;;;;;;;;;;;;;;;;5048337;28;19932;-69
2021/07/13 08:50:58;;;;;;;;;;;;;;;;;;5047825;28;19963;-72
2021/07/13 08:53:25;;;;;;;;;;;;;;;;;;5054186;28;20408;-71
2021/07/13 08:55:54;;;;;;;;;;;;;;;;;;5049375;28;20210;-70
2021/07/13 08:58:21;;;;;;;;;;;;;;;;;;5050409;28;19929;-70
2021/07/13 09:00:48;;;;;;;;;;;;;;;;;;5050748;28;20315;-70
2021/07/13 09:03:16;;;;;;;;;;;;;;;;;;5043942;28;19928;-70
2021/07/13 09:05:43;;;;;;;;;;;;;;;;;;5048046;28;19924;-71
2021/07/13 09:08:10;;;;;;;;;;;;;;;;;;5047758;28;19936;-69
2021/07/13 09:10:37;;;;;;;;;;;;;;;;;;5048336;28;19996;-70
2021/07/13 09:13:04;;;;;;;;;;;;;;;;;;5044923;28;19927;-69
2021/07/13 09:15:31;;;;;;;;;;;;;;;;;;5049983;28;20363;-71
2021/07/13 09:17:58;;;;;;;;;;;;;;;;;;5052603;28;19980;-70
2021/07/13 09:20:28;;;;;;;;;;;;;;;;;;5051255;28;19988;-70
2021/07/13 09:22:55;;;;;;;;;;;;;;;;;;5056252;28;20007;-69
2021/07/13 09:25:23;;;;;;;;;;;;;;;;;;5055686;28;19925;-70
2021/07/13 09:27:50;;;;;;;;;;;;;;;;;;5061407;28;19933;-71
2021/07/13 09:30:17;;;;;;;;;;;;;;;;;;5052183;28;19935;-71
2021/07/13 09:32:44;;;;;;;;;;;;;;;;;;5046437;28;19925;-72
2021/07/13 09:35:13;;;;;;;;;;;;;;;;;;5051133;28;19925;-69
2021/07/13 09:37:43;;;;;;;;;;;;;;;;;;5068086;22;19947;-65
2021/07/13 09:40:10;;;;;;;;;;;;;;;;;;5060550;28;19978;-66
2021/07/13 09:42:37;;;;;;;;;;;;;;;;;;5061605;28;19931;-65
2021/07/13 09:45:04;;;;;;;;;;;;;;;;;;5047433;28;19925;-68
2021/07/13 09:47:31;;;;;;;;;;;;;;;;;;5048839;28;19939;-65
2021/07/13 09:49:58;;;;;;;;;;;;;;;;;;5054379;28;19933;-66
2021/07/13 09:52:25;;;;;;;;;;;;;;;;;;5049635;28;20264;-67
2021/07/13 09:54:52;;;;;;;;;;;;;;;;;;5050626;28;20291;-68
2021/07/13 09:57:20;;;;;;;;;;;;;;;;;;5043475;28;20411;-68
2021/07/13 09:59:47;;;;;;;;;;;;;;;;;;5054401;28;19924;-67
2021/07/13 10:02:15;;;;;;;;;;;;;;;;;;5043627;28;20204;-67
2021/07/13 10:04:42;;;;;;;;;;;;;;;;;;5046067;28;20373;-67
2021/07/13 10:07:09;;;;;;;;;;;;;;;;;;5043383;28;20518;-69
2021/07/13 10:09:36;;;;;;;;;;;;;;;;;;5049352;28;19979;-68
2021/07/13 10:12:03;;;;;;;;;;;;;;;;;;5046468;28;19932;-68
2021/07/13 10:14:30;;;;;;;;;;;;;;;;;;5049201;28;20027;-67
2021/07/13 10:16:57;;;;;;;;;;;;;;;;;;5052440;28;19932;-67
2021/07/13 10:19:24;;;;;;;;;;;;;;;;;;5044599;28;19925;-67
2021/07/13 10:21:51;;;;;;;;;;;;;;;;;;5044631;28;19932;-66
2021/07/13 10:24:18;;;;;;;;;;;;;;;;;;5044605;28;19925;-67
2021/07/13 10:26:45;;;;;;;;;;;;;;;;;;5045368;28;19947;-65
2021/07/13 10:29:12;;;;;;;;;;;;;;;;;;5043462;28;19928;-66
2021/07/13 10:31:39;;;;;;;;;;;;;;;;;;5042877;28;19924;-67
2021/07/13 10:34:06;;;;;;;;;;;;;;;;;;5042931;28;19925;-68
2021/07/13 10:36:33;;;;;;;;;;;;;;;;;;5042846;28;19936;-67
2021/07/13 10:39:00;;;;;;;;;;;;;;;;;;5051783;28;19924;-67
2021/07/13 10:41:27;;;;;;;;;;;;;;;;;;5043198;28;19931;-68
2021/07/13 10:43:54;;;;;;;;;;;;;;;;;;5047648;28;20307;-67
2021/07/13 10:46:21;;;;;;;;;;;;;;;;;;5047770;28;20281;-67
2021/07/13 10:48:47;;;;;;;;;;;;;;;;;;5050955;28;19932;-66
2021/07/13 10:51:14;;;;;;;;;;;;;;;;;;5049103;28;19932;-66
2021/07/13 10:53:42;;;;;;;;;;;;;;;;;;5045499;28;19924;-67
2021/07/13 10:56:09;;;;;;;;;;;;;;;;;;5043411;28;19979;-67
2021/07/13 10:58:36;;;;;;;;;;;;;;;;;;5051894;28;19979;-65
2021/07/13 11:01:03;;;;;;;;;;;;;;;;;;5044687;28;20419;-66
2021/07/13 11:03:30;;;;;;;;;;;;;;;;;;5045862;28;19925;-68
2021/07/13 11:05:57;;;;;;;;;;;;;;;;;;5047297;28;20380;-68
2021/07/13 11:08:24;;;;;;;;;;;;;;;;;;5041747;28;19932;-68
2021/07/13 11:10:51;;;;;;;;;;;;;;;;;;5045342;28;19936;-67
2021/07/13 11:13:18;;;;;;;;;;;;;;;;;;5051235;28;20404;-68
2021/07/13 11:15:44;;;;;;;;;;;;;;;;;;5042894;28;19939;-66
2021/07/13 11:18:11;;;;;;;;;;;;;;;;;;5046187;28;19932;-68
2021/07/13 11:20:38;;;;;;;;;;;;;;;;;;5043012;28;19925;-63
2021/07/13 11:23:05;;;;;;;;;;;;;;;;;;5044307;28;19931;-67
2021/07/13 11:25:34;;;;;;;;;;;;;;;;;;5044491;28;19944;-66
2021/07/13 11:28:01;;;;;;;;;;;;;;;;;;5048578;28;19924;-65
2021/07/13 11:30:28;;;;;;;;;;;;;;;;;;5047750;28;19966;-67
2021/07/13 11:32:55;;;;;;;;;;;;;;;;;;5047931;28;19925;-66
2021/07/13 11:35:22;;;;;;;;;;;;;;;;;;5049338;28;19924;-68
2021/07/13 11:37:49;;;;;;;;;;;;;;;;;;5051515;28;19925;-66
2021/07/13 11:40:15;;;;;;;;;;;;;;;;;;5054528;28;20031;-65
2021/07/13 11:42:42;;;;;;;;;;;;;;;;;;5050808;28;19932;-65
2021/07/13 11:45:09;;;;;;;;;;;;;;;;;;5045239;28;19929;-65
2021/07/13 11:47:36;;;;;;;;;;;;;;;;;;5043949;28;19929;-66
2021/07/13 11:50:03;;;;;;;;;;;;;;;;;;5050198;28;19930;-66
2021/07/13 11:52:30;;;;;;;;;;;;;;;;;;5052234;28;19939;-66
2021/07/13 11:54:57;;;;;;;;;;;;;;;;;;5052520;28;19964;-65
2021/07/13 11:57:24;;;;;;;;;;;;;;;;;;5050395;28;19955;-65
2021/07/13 11:59:51;;;;;;;;;;;;;;;;;;5054193;28;19929;-66
2021/07/13 12:02:19;;;;;;;;;;;;;;;;;;5047478;28;19924;-66
2021/07/13 12:04:46;;;;;;;;;;;;;;;;;;5049450;28;19940;-66
2021/07/13 12:07:14;;;;;;;;;;;;;;;;;;5050759;28;19925;-66
2021/07/13 12:09:41;;;;;;;;;;;;;;;;;;5048418;28;19925;-67
2021/07/13 12:12:08;;;;;;;;;;;;;;;;;;5053258;28;19925;-66
2021/07/13 12:14:35;;;;;;;;;;;;;;;;;;5051076;28;20003;-66
2021/07/13 12:17:02;;;;;;;;;;;;;;;;;;5047639;28;20376;-67
2021/07/13 12:19:29;;;;;;;;;;;;;;;;;;5046324;28;19929;-67
2021/07/13 12:21:55;;;;;;;;;;;;;;;;;;5049279;28;19943;-67
2021/07/13 12:24:24;;;;;;;;;;;;;;;;;;5053272;28;19933;-67
2021/07/13 12:26:51;;;;;;;;;;;;;;;;;;5054053;28;19964;-67
2021/07/13 12:29:18;;;;;;;;;;;;;;;;;;5048843;28;19925;-67
2021/07/13 12:31:46;;;;;;;;;;;;;;;;;;5047452;28;19933;-67
2021/07/13 12:34:13;;;;;;;;;;;;;;;;;;5049859;28;19929;-67
2021/07/13 12:36:40;;;;;;;;;;;;;;;;;;5047390;28;19925;-67
2021/07/13 12:39:07;;;;;;;;;;;;;;;;;;5046133;28;19929;-67
2021/07/13 12:41:34;;;;;;;;;;;;;;;;;;5053030;28;19924;-67
2021/07/13 12:44:01;;;;;;;;;;;;;;;;;;5051703;28;20311;-66
2021/07/13 12:46:28;;;;;;;;;;;;;;;;;;5049448;28;20311;-66
2021/07/13 12:48:55;;;;;;;;;;;;;;;;;;5039506;28;19947;-66
2021/07/13 12:51:22;;;;;;;;;;;;;;;;;;5051734;28;19924;-65
2021/07/13 12:53:49;;;;;;;;;;;;;;;;;;5051618;28;19933;-66
2021/07/13 12:56:16;;;;;;;;;;;;;;;;;;5048250;28;19924;-66
2021/07/13 12:58:43;;;;;;;;;;;;;;;;;;5050771;28;20372;-66
2021/07/13 13:01:10;;;;;;;;;;;;;;;;;;5046659;28;19925;-66
2021/07/13 13:03:37;;;;;;;;;;;;;;;;;;5044873;28;19935;-65
2021/07/13 13:06:04;;;;;;;;;;;;;;;;;;5049342;28;20015;-66
2021/07/13 13:08:31;;;;;;;;;;;;;;;;;;5053310;28;20303;-67
2021/07/13 13:10:57;;;;;;;;;;;;;;;;;;5044178;28;20365;-64
2021/07/13 13:13:24;;;;;;;;;;;;;;;;;;5054711;28;19936;-65
2021/07/13 13:15:51;;;;;;;;;;;;;;;;;;5045099;28;19929;-65
2021/07/13 13:18:18;;;;;;;;;;;;;;;;;;5049529;28;19955;-66
2021/07/13 13:20:45;;;;;;;;;;;;;;;;;;5044630;28;19971;-66
2021/07/13 13:23:12;;;;;;;;;;;;;;;;;;5049180;28;19924;-66
2021/07/13 13:25:39;;;;;;;;;;;;;;;;;;5048640;28;20016;-67
2021/07/13 13:28:06;;;;;;;;;;;;;;;;;;5048474;28;20372;-66
2021/07/13 13:30:33;;;;;;;;;;;;;;;;;;5042883;28;19927;-65
2021/07/13 13:33:00;;;;;;;;;;;;;;;;;;5046765;28;19964;-67
2021/07/13 13:35:33;;;;;;;;;;;;;;;;;;5050734;28;19929;-66
2021/07/13 13:40:44;;;;;;;;;;;;;;;;;;5048413;28;20373;-65
2021/07/13 13:43:11;;;;;;;;;;;;;;;;;;5044148;28;19925;-67
2021/07/13 13:45:38;;;;;;;;;;;;;;;;;;5053454;28;19928;-66
2021/07/13 13:48:05;;;;;;;;;;;;;;;;;;5042679;28;20359;-66
2021/07/13 13:50:32;;;;;;;;;;;;;;;;;;5045421;28;19925;-66
2021/07/13 13:52:59;;;;;;;;;;;;;;;;;;5048362;28;19932;-65
2021/07/13 13:55:26;;;;;;;;;;;;;;;;;;5050290;28;19931;-66
2021/07/13 13:57:53;;;;;;;;;;;;;;;;;;5044783;28;19925;-66
2021/07/13 14:00:20;;;;;;;;;;;;;;;;;;5042975;28;19925;-66
2021/07/13 14:02:47;;;;;;;;;;;;;;;;;;5047426;28;20300;-65
2021/07/13 14:05:14;;;;;;;;;;;;;;;;;;5048345;28;19928;-66
2021/07/13 14:07:41;;;;;;;;;;;;;;;;;;5050078;28;19925;-66
2021/07/13 14:10:08;;;;;;;;;;;;;;;;;;5046208;28;19925;-67
2021/07/13 14:12:35;;;;;;;;;;;;;;;;;;5045423;28;19925;-68
2021/07/13 14:15:03;;;;;;;;;;;;;;;;;;5050707;28;19924;-69
2021/07/13 14:17:31;;;;;;;;;;;;;;;;;;5047144;28;19928;-68
2021/07/13 14:19:58;;;;;;;;;;;;;;;;;;5050343;28;19958;-67
2021/07/13 14:22:25;;;;;;;;;;;;;;;;;;5044582;28;20027;-65
2021/07/13 14:24:52;;;;;;;;;;;;;;;;;;5046261;28;19936;-66
2021/07/13 14:27:19;;;;;;;;;;;;;;;;;;5044981;28;19943;-66
2021/07/13 14:29:47;;;;;;;;;;;;;;;;;;5047218;28;20007;-66
2021/07/13 14:32:14;;;;;;;;;;;;;;;;;;5046531;28;19956;-65
2021/07/13 14:34:41;;;;;;;;;;;;;;;;;;5043587;28;20050;-65
2021/07/13 14:37:08;;;;;;;;;;;;;;;;;;5048227;28;19943;-66
2021/07/13 14:39:35;;;;;;;;;;;;;;;;;;5047717;28;20004;-66
2021/07/13 14:42:02;;;;;;;;;;;;;;;;;;5045680;28;20023;-65
2021/07/13 14:44:29;;;;;;;;;;;;;;;;;;5049363;28;19925;-69
2021/07/13 14:46:55;;;;;;;;;;;;;;;;;;5047069;28;19983;-65
2021/07/13 14:49:23;;;;;;;;;;;;;;;;;;5045588;28;19954;-66
2021/07/13 14:51:49;;;;;;;;;;;;;;;;;;5044050;28;19978;-68
2021/07/13 14:54:16;;;;;;;;;;;;;;;;;;5043786;28;19925;-66
2021/07/13 14:56:43;;;;;;;;;;;;;;;;;;5046438;28;19955;-69
2021/07/13 14:59:10;;;;;;;;;;;;;;;;;;5046809;28;19925;-65
2021/07/13 15:01:37;;;;;;;;;;;;;;;;;;5048291;28;19935;-66
2021/07/13 15:04:04;;;;;;;;;;;;;;;;;;5048419;28;20063;-64
2021/07/13 15:06:31;;;;;;;;;;;;;;;;;;5046177;28;20396;-67
2021/07/13 15:08:58;;;;;;;;;;;;;;;;;;5045047;28;19925;-68
2021/07/13 15:11:25;;;;;;;;;;;;;;;;;;5047601;28;19935;-66
2021/07/13 15:13:52;;;;;;;;;;;;;;;;;;5051402;28;19925;-66
2021/07/13 15:16:19;;;;;;;;;;;;;;;;;;5045922;28;20335;-68
2021/07/13 15:18:46;;;;;;;;;;;;;;;;;;5048255;28;19929;-67
2021/07/13 15:21:13;;;;;;;;;;;;;;;;;;5047919;28;20019;-68
2021/07/13 15:23:40;;;;;;;;;;;;;;;;;;5047431;28;19932;-69
2021/07/13 15:26:07;;;;;;;;;;;;;;;;;;5046390;28;20015;-67
2021/07/13 15:28:34;;;;;;;;;;;;;;;;;;5046205;28;19931;-66
2021/07/13 15:31:01;;;;;;;;;;;;;;;;;;5044692;28;19924;-66
2021/07/13 15:33:29;;;;;;;;;;;;;;;;;;5041906;28;19931;-66
2021/07/13 15:35:56;;;;;;;;;;;;;;;;;;5062480;22;19955;-71
2021/07/13 15:38:24;;;;;;;;;;;;;;;;;;5053226;28;19944;-70
2021/07/13 15:40:51;;;;;;;;;;;;;;;;;;5046653;28;19968;-69
2021/07/13 15:43:18;;;;;;;;;;;;;;;;;;5050669;28;20688;-71
2021/07/13 15:45:45;;;;;;;;;;;;;;;;;;5049980;28;19929;-71
2021/07/13 15:48:12;;;;;;;;;;;;;;;;;;5056049;28;19925;-69
2021/07/13 15:50:39;;;;;;;;;;;;;;;;;;5054026;28;20612;-71
2021/07/13 15:53:06;;;;;;;;;;;;;;;;;;5060657;28;19933;-71
2021/07/13 15:55:33;;;;;;;;;;;;;;;;;;5055600;28;19935;-71
2021/07/13 15:58:00;;;;;;;;;;;;;;;;;;5055593;28;19928;-70
2021/07/13 16:00:27;;;;;;;;;;;;;;;;;;5052891;28;20468;-70
2021/07/13 16:02:54;;;;;;;;;;;;;;;;;;5050235;28;20032;-70
2021/07/13 16:05:21;;;;;;;;;;;;;;;;;;5055420;28;19933;-69
2021/07/13 16:07:48;;;;;;;;;;;;;;;;;;5070803;28;19924;-70
2021/07/13 16:10:16;;;;;;;;;;;;;;;;;;5053089;28;19933;-70
2021/07/13 16:12:43;;;;;;;;;;;;;;;;;;5047360;28;20396;-72
2021/07/13 16:15:10;;;;;;;;;;;;;;;;;;5049093;28;19947;-71
2021/07/13 16:17:37;;;;;;;;;;;;;;;;;;5053290;28;19931;-70
2021/07/13 16:20:04;;;;;;;;;;;;;;;;;;5052030;28;19931;-70
2021/07/13 16:22:31;;;;;;;;;;;;;;;;;;5055389;28;20027;-71
2021/07/13 16:24:58;;;;;;;;;;;;;;;;;;5058852;28;20393;-70
2021/07/13 16:27:30;;;;;;;;;;;;;;;;;;5056583;28;19964;-70
2021/07/13 16:29:57;;;;;;;;;;;;;;;;;;5056741;28;19935;-71
2021/07/13 16:32:24;;;;;;;;;;;;;;;;;;5052763;28;19933;-69
2021/07/13 16:34:51;;;;;;;;;;;;;;;;;;5054157;28;19929;-69
2021/07/13 16:37:18;;;;;;;;;;;;;;;;;;5058205;28;20344;-72
2021/07/13 16:39:45;;;;;;;;;;;;;;;;;;5058629;28;19967;-71
2021/07/13 16:42:12;;;;;;;;;;;;;;;;;;5064928;28;21417;-71
2021/07/13 16:44:39;;;;;;;;;;;;;;;;;;5061257;28;19951;-71
2021/07/13 16:47:06;;;;;;;;;;;;;;;;;;5058693;28;19925;-69